sensor_id;sensor_type;location;lat;lon;timestamp;temperature;humidity
23475;DHT22;11910;52.086;21.066;2023-02-12T00:00:45;3.70;99.90
23475;DHT22;11910;52.086;21.066;2023-02-12T00:03:11;3.70;99.90
23475;DHT22;11910;52.086;21.066;2023-02-12T00:05:37;3.60;99.90
23475;DHT22;11910;52.086;21.066;2023-02-12T00:08:03;3.60;99.90
23475;DHT22;11910;52.086;21.066;2023-02-12T00:10:29;3.60;99.90
23475;DHT22;11910;52.086;21.066;2023-02-12T00:12:58;3.60;99.90
23475;DHT22;11910;52.086;21.066;2023-02-12T00:15:23;3.50;99.90
23475;DHT22;11910;52.086;21.066;2023-02-12T00:17:49;3.50;99.90
23475;DHT22;11910;52.086;21.066;2023-02-12T00:20:14;3.50;99.90
23475;DHT22;11910;52.086;21.066;2023-02-12T00:22:40;3.50;99.90
23475;DHT22;11910;52.086;21.066;2023-02-12T00:25:06;3.50;99.90
23475;DHT22;11910;52.086;21.066;2023-02-12T00:27:33;3.50;99.90
23475;DHT22;11910;52.086;21.066;2023-02-12T00:29:59;3.40;99.90
23475;DHT22;11910;52.086;21.066;2023-02-12T00:32:25;3.40;99.90
23475;DHT22;11910;52.086;21.066;2023-02-12T00:34:50;3.40;99.90
23475;DHT22;11910;52.086;21.066;2023-02-12T00:37:19;3.40;99.90
23475;DHT22;11910;52.086;21.066;2023-02-12T00:39:45;3.30;99.90
23475;DHT22;11910;52.086;21.066;2023-02-12T00:42:13;3.30;99.90
23475;DHT22;11910;52.086;21.066;2023-02-12T00:44:38;3.30;99.90
23475;DHT22;11910;52.086;21.066;2023-02-12T00:47:06;3.20;99.90
23475;DHT22;11910;52.086;21.066;2023-02-12T00:49:35;3.20;99.90
23475;DHT22;11910;52.086;21.066;2023-02-12T00:52:01;3.20;99.90
23475;DHT22;11910;52.086;21.066;2023-02-12T00:54:28;3.20;99.90
23475;DHT22;11910;52.086;21.066;2023-02-12T00:56:54;3.20;99.90
23475;DHT22;11910;52.086;21.066;2023-02-12T00:59:21;3.10;99.90
23475;DHT22;11910;52.086;21.066;2023-02-12T01:01:47;3.10;99.90
23475;DHT22;11910;52.086;21.066;2023-02-12T01:04:12;3.10;99.90
23475;DHT22;11910;52.086;21.066;2023-02-12T01:06:38;3.10;99.90
23475;DHT22;11910;52.086;21.066;2023-02-12T01:09:12;3.10;99.90
23475;DHT22;11910;52.086;21.066;2023-02-12T01:11:40;3.20;99.90
23475;DHT22;11910;52.086;21.066;2023-02-12T01:14:09;3.20;99.90
23475;DHT22;11910;52.086;21.066;2023-02-12T01:16:35;3.20;99.90
23475;DHT22;11910;52.086;21.066;2023-02-12T01:19:02;3.20;99.90
23475;DHT22;11910;52.086;21.066;2023-02-12T01:21:31;3.20;99.90
23475;DHT22;11910;52.086;21.066;2023-02-12T01:24:00;3.20;99.90
23475;DHT22;11910;52.086;21.066;2023-02-12T01:26:28;3.20;99.90
23475;DHT22;11910;52.086;21.066;2023-02-12T01:28:56;3.20;99.90
23475;DHT22;11910;52.086;21.066;2023-02-12T01:31:25;3.10;99.90
23475;DHT22;11910;52.086;21.066;2023-02-12T01:33:53;3.10;99.90
23475;DHT22;11910;52.086;21.066;2023-02-12T01:36:20;3.10;99.90
23475;DHT22;11910;52.086;21.066;2023-02-12T01:38:47;3.00;99.90
23475;DHT22;11910;52.086;21.066;2023-02-12T01:41:17;3.00;99.90
23475;DHT22;11910;52.086;21.066;2023-02-12T01:43:44;3.00;99.90
23475;DHT22;11910;52.086;21.066;2023-02-12T01:46:13;3.10;99.90
23475;DHT22;11910;52.086;21.066;2023-02-12T01:48:44;3.00;99.90
23475;DHT22;11910;52.086;21.066;2023-02-12T01:51:11;3.00;99.90
23475;DHT22;11910;52.086;21.066;2023-02-12T01:53:44;3.00;99.90
23475;DHT22;11910;52.086;21.066;2023-02-12T01:56:11;3.00;99.90
23475;DHT22;11910;52.086;21.066;2023-02-12T01:58:39;3.00;99.90
23475;DHT22;11910;52.086;21.066;2023-02-12T02:01:08;3.00;99.90
23475;DHT22;11910;52.086;21.066;2023-02-12T02:03:36;3.00;99.90
23475;DHT22;11910;52.086;21.066;2023-02-12T02:06:09;3.00;99.90
23475;DHT22;11910;52.086;21.066;2023-02-12T02:08:36;3.00;99.90
23475;DHT22;11910;52.086;21.066;2023-02-12T02:11:02;3.00;99.90
23475;DHT22;11910;52.086;21.066;2023-02-12T02:13:48;2.90;99.90
23475;DHT22;11910;52.086;21.066;2023-02-12T02:16:34;2.90;99.90
23475;DHT22;11910;52.086;21.066;2023-02-12T02:38:42;3.00;99.90
23475;DHT22;11910;52.086;21.066;2023-02-12T02:43:54;3.00;99.90
23475;DHT22;11910;52.086;21.066;2023-02-12T02:46:26;3.00;99.90
23475;DHT22;11910;52.086;21.066;2023-02-12T02:49:01;3.00;99.90
23475;DHT22;11910;52.086;21.066;2023-02-12T02:51:33;3.00;99.90
23475;DHT22;11910;52.086;21.066;2023-02-12T02:54:08;2.90;99.90
23475;DHT22;11910;52.086;21.066;2023-02-12T02:56:38;2.90;99.90
23475;DHT22;11910;52.086;21.066;2023-02-12T02:59:10;2.90;99.90
23475;DHT22;11910;52.086;21.066;2023-02-12T03:01:49;2.80;99.90
23475;DHT22;11910;52.086;21.066;2023-02-12T03:04:30;2.80;99.90
23475;DHT22;11910;52.086;21.066;2023-02-12T03:09:37;2.80;99.90
23475;DHT22;11910;52.086;21.066;2023-02-12T03:12:07;2.80;99.90
23475;DHT22;11910;52.086;21.066;2023-02-12T03:14:47;2.80;99.90
23475;DHT22;11910;52.086;21.066;2023-02-12T03:17:24;2.80;99.90
23475;DHT22;11910;52.086;21.066;2023-02-12T03:19:56;2.80;99.90
23475;DHT22;11910;52.086;21.066;2023-02-12T03:22:28;2.80;99.90
23475;DHT22;11910;52.086;21.066;2023-02-12T03:25:02;2.80;99.90
23475;DHT22;11910;52.086;21.066;2023-02-12T03:27:41;2.80;99.90
23475;DHT22;11910;52.086;21.066;2023-02-12T03:30:09;2.80;99.90
23475;DHT22;11910;52.086;21.066;2023-02-12T03:32:37;2.70;99.70
23475;DHT22;11910;52.086;21.066;2023-02-12T03:37:55;2.70;99.70
23475;DHT22;11910;52.086;21.066;2023-02-12T03:43:20;2.70;99.50
23475;DHT22;11910;52.086;21.066;2023-02-12T03:45:48;2.70;99.20
23475;DHT22;11910;52.086;21.066;2023-02-12T03:48:18;2.70;98.70
23475;DHT22;11910;52.086;21.066;2023-02-12T03:53:36;2.70;99.50
23475;DHT22;11910;52.086;21.066;2023-02-12T03:56:10;2.70;99.40
23475;DHT22;11910;52.086;21.066;2023-02-12T03:58:37;2.70;98.90
23475;DHT22;11910;52.086;21.066;2023-02-12T04:01:05;2.70;99.50
23475;DHT22;11910;52.086;21.066;2023-02-12T04:03:31;2.70;99.50
23475;DHT22;11910;52.086;21.066;2023-02-12T04:05:57;2.70;99.40
23475;DHT22;11910;52.086;21.066;2023-02-12T04:08:23;2.80;99.30
23475;DHT22;11910;52.086;21.066;2023-02-12T04:12:03;2.80;99.70
23475;DHT22;11910;52.086;21.066;2023-02-12T04:14:17;2.80;99.00
23475;DHT22;11910;52.086;21.066;2023-02-12T04:16:50;2.80;99.40
23475;DHT22;11910;52.086;21.066;2023-02-12T04:19:32;2.80;99.50
23475;DHT22;11910;52.086;21.066;2023-02-12T04:25:51;2.70;99.40
23475;DHT22;11910;52.086;21.066;2023-02-12T04:27:56;2.70;99.20
23475;DHT22;11910;52.086;21.066;2023-02-12T04:30:27;2.70;99.60
23475;DHT22;11910;52.086;21.066;2023-02-12T04:33:05;2.70;99.20
23475;DHT22;11910;52.086;21.066;2023-02-12T04:38:32;2.70;98.80
23475;DHT22;11910;52.086;21.066;2023-02-12T04:41:00;2.60;98.80
23475;DHT22;11910;52.086;21.066;2023-02-12T04:45:53;2.60;98.80
23475;DHT22;11910;52.086;21.066;2023-02-12T04:48:18;2.60;98.70
23475;DHT22;11910;52.086;21.066;2023-02-12T04:50:44;2.60;98.60
23475;DHT22;11910;52.086;21.066;2023-02-12T04:53:11;2.60;98.60
23475;DHT22;11910;52.086;21.066;2023-02-12T04:55:36;2.60;99.10
23475;DHT22;11910;52.086;21.066;2023-02-12T04:58:03;2.60;98.70
23475;DHT22;11910;52.086;21.066;2023-02-12T05:00:28;2.60;98.80
23475;DHT22;11910;52.086;21.066;2023-02-12T05:02:54;2.60;99.10
23475;DHT22;11910;52.086;21.066;2023-02-12T05:05:20;2.70;99.40
23475;DHT22;11910;52.086;21.066;2023-02-12T05:07:46;2.70;99.40
23475;DHT22;11910;52.086;21.066;2023-02-12T05:10:12;2.70;99.40
23475;DHT22;11910;52.086;21.066;2023-02-12T05:12:38;2.70;99.20
23475;DHT22;11910;52.086;21.066;2023-02-12T05:15:03;2.70;98.90
23475;DHT22;11910;52.086;21.066;2023-02-12T05:17:29;2.70;99.40
23475;DHT22;11910;52.086;21.066;2023-02-12T05:19:55;2.60;98.90
23475;DHT22;11910;52.086;21.066;2023-02-12T05:22:20;2.60;99.10
23475;DHT22;11910;52.086;21.066;2023-02-12T05:24:46;2.60;98.90
23475;DHT22;11910;52.086;21.066;2023-02-12T05:27:12;2.60;99.00
23475;DHT22;11910;52.086;21.066;2023-02-12T05:29:37;2.60;98.70
23475;DHT22;11910;52.086;21.066;2023-02-12T05:32:03;2.60;99.00
23475;DHT22;11910;52.086;21.066;2023-02-12T05:34:29;2.60;99.50
23475;DHT22;11910;52.086;21.066;2023-02-12T05:36:55;2.60;99.40
23475;DHT22;11910;52.086;21.066;2023-02-12T05:39:20;2.60;98.70
23475;DHT22;11910;52.086;21.066;2023-02-12T05:41:46;2.50;98.60
23475;DHT22;11910;52.086;21.066;2023-02-12T05:44:12;2.50;98.70
23475;DHT22;11910;52.086;21.066;2023-02-12T05:46:40;2.50;98.90
23475;DHT22;11910;52.086;21.066;2023-02-12T05:49:06;2.40;98.50
23475;DHT22;11910;52.086;21.066;2023-02-12T05:51:31;2.40;98.60
23475;DHT22;11910;52.086;21.066;2023-02-12T05:54:00;2.40;98.10
23475;DHT22;11910;52.086;21.066;2023-02-12T05:56:27;2.40;98.10
23475;DHT22;11910;52.086;21.066;2023-02-12T05:59:21;2.30;98.40
23475;DHT22;11910;52.086;21.066;2023-02-12T06:01:48;2.40;98.40
23475;DHT22;11910;52.086;21.066;2023-02-12T06:04:26;2.30;98.40
23475;DHT22;11910;52.086;21.066;2023-02-12T06:06:52;2.30;98.10
23475;DHT22;11910;52.086;21.066;2023-02-12T06:09:20;2.30;98.40
23475;DHT22;11910;52.086;21.066;2023-02-12T06:11:46;2.30;98.00
23475;DHT22;11910;52.086;21.066;2023-02-12T06:14:15;2.30;98.00
23475;DHT22;11910;52.086;21.066;2023-02-12T06:16:47;2.30;97.70
23475;DHT22;11910;52.086;21.066;2023-02-12T06:19:13;2.30;98.00
23475;DHT22;11910;52.086;21.066;2023-02-12T06:21:39;2.30;98.30
23475;DHT22;11910;52.086;21.066;2023-02-12T06:24:05;2.30;98.20
23475;DHT22;11910;52.086;21.066;2023-02-12T06:26:30;2.30;97.90
23475;DHT22;11910;52.086;21.066;2023-02-12T06:28:56;2.30;98.10
23475;DHT22;11910;52.086;21.066;2023-02-12T06:31:26;2.30;97.50
23475;DHT22;11910;52.086;21.066;2023-02-12T06:33:53;2.30;98.30
23475;DHT22;11910;52.086;21.066;2023-02-12T06:36:19;2.30;97.50
23475;DHT22;11910;52.086;21.066;2023-02-12T06:38:45;2.30;97.40
23475;DHT22;11910;52.086;21.066;2023-02-12T06:41:11;2.30;97.40
23475;DHT22;11910;52.086;21.066;2023-02-12T06:43:37;2.30;97.90
23475;DHT22;11910;52.086;21.066;2023-02-12T06:46:04;2.40;97.70
23475;DHT22;11910;52.086;21.066;2023-02-12T06:48:30;2.40;98.10
23475;DHT22;11910;52.086;21.066;2023-02-12T06:51:03;2.40;98.10
23475;DHT22;11910;52.086;21.066;2023-02-12T06:53:29;2.40;97.70
23475;DHT22;11910;52.086;21.066;2023-02-12T06:55:54;2.50;97.80
23475;DHT22;11910;52.086;21.066;2023-02-12T06:58:20;2.50;97.80
23475;DHT22;11910;52.086;21.066;2023-02-12T07:00:46;2.60;97.80
23475;DHT22;11910;52.086;21.066;2023-02-12T07:03:11;2.60;97.80
23475;DHT22;11910;52.086;21.066;2023-02-12T07:05:38;2.60;97.00
23475;DHT22;11910;52.086;21.066;2023-02-12T07:08:04;2.60;97.40
23475;DHT22;11910;52.086;21.066;2023-02-12T07:10:30;2.50;97.40
23475;DHT22;11910;52.086;21.066;2023-02-12T07:12:55;2.40;97.70
23475;DHT22;11910;52.086;21.066;2023-02-12T07:15:21;2.30;97.60
23475;DHT22;11910;52.086;21.066;2023-02-12T07:17:46;2.30;97.70
23475;DHT22;11910;52.086;21.066;2023-02-12T07:20:12;2.20;98.00
23475;DHT22;11910;52.086;21.066;2023-02-12T07:22:38;2.20;97.40
23475;DHT22;11910;52.086;21.066;2023-02-12T07:25:04;2.20;97.80
23475;DHT22;11910;52.086;21.066;2023-02-12T07:27:29;2.20;97.60
23475;DHT22;11910;52.086;21.066;2023-02-12T07:29:55;2.20;97.10
23475;DHT22;11910;52.086;21.066;2023-02-12T07:32:20;2.20;97.10
23475;DHT22;11910;52.086;21.066;2023-02-12T07:34:46;2.20;96.90
23475;DHT22;11910;52.086;21.066;2023-02-12T07:37:12;2.20;96.70
23475;DHT22;11910;52.086;21.066;2023-02-12T07:39:37;2.20;96.60
23475;DHT22;11910;52.086;21.066;2023-02-12T07:42:03;2.20;96.70
23475;DHT22;11910;52.086;21.066;2023-02-12T07:44:29;2.30;96.40
23475;DHT22;11910;52.086;21.066;2023-02-12T07:46:55;2.30;96.90
23475;DHT22;11910;52.086;21.066;2023-02-12T07:49:21;2.30;96.70
23475;DHT22;11910;52.086;21.066;2023-02-12T07:51:48;2.30;96.30
23475;DHT22;11910;52.086;21.066;2023-02-12T07:54:14;2.40;96.30
23475;DHT22;11910;52.086;21.066;2023-02-12T07:56:41;2.40;95.90
23475;DHT22;11910;52.086;21.066;2023-02-12T07:59:10;2.50;95.80
23475;DHT22;11910;52.086;21.066;2023-02-12T08:01:47;2.50;95.50
23475;DHT22;11910;52.086;21.066;2023-02-12T08:04:19;2.60;95.40
23475;DHT22;11910;52.086;21.066;2023-02-12T08:06:47;2.60;95.10
23475;DHT22;11910;52.086;21.066;2023-02-12T08:09:17;2.60;95.20
23475;DHT22;11910;52.086;21.066;2023-02-12T08:11:43;2.70;95.30
23475;DHT22;11910;52.086;21.066;2023-02-12T08:14:13;2.80;95.20
23475;DHT22;11910;52.086;21.066;2023-02-12T08:16:40;2.90;95.10
23475;DHT22;11910;52.086;21.066;2023-02-12T08:19:06;3.00;95.20
23475;DHT22;11910;52.086;21.066;2023-02-12T08:21:32;3.10;95.00
23475;DHT22;11910;52.086;21.066;2023-02-12T08:24:02;3.20;94.70
23475;DHT22;11910;52.086;21.066;2023-02-12T08:26:28;3.30;94.70
23475;DHT22;11910;52.086;21.066;2023-02-12T08:29:10;3.30;94.60
23475;DHT22;11910;52.086;21.066;2023-02-12T08:31:41;3.50;93.90
23475;DHT22;11910;52.086;21.066;2023-02-12T08:34:30;3.50;93.60
23475;DHT22;11910;52.086;21.066;2023-02-12T08:36:57;3.60;93.90
23475;DHT22;11910;52.086;21.066;2023-02-12T08:39:26;3.70;93.80
23475;DHT22;11910;52.086;21.066;2023-02-12T08:41:54;3.80;93.40
23475;DHT22;11910;52.086;21.066;2023-02-12T08:44:20;4.00;93.40
23475;DHT22;11910;52.086;21.066;2023-02-12T08:46:48;4.30;93.40
23475;DHT22;11910;52.086;21.066;2023-02-12T08:49:19;4.60;92.60
23475;DHT22;11910;52.086;21.066;2023-02-12T08:51:48;4.90;91.80
23475;DHT22;11910;52.086;21.066;2023-02-12T08:54:17;5.30;91.10
23475;DHT22;11910;52.086;21.066;2023-02-12T08:56:43;5.60;90.90
23475;DHT22;11910;52.086;21.066;2023-02-12T08:59:12;6.00;90.20
23475;DHT22;11910;52.086;21.066;2023-02-12T09:01:38;6.50;89.40
23475;DHT22;11910;52.086;21.066;2023-02-12T09:04:15;6.80;87.30
23475;DHT22;11910;52.086;21.066;2023-02-12T09:06:42;7.00;87.30
23475;DHT22;11910;52.086;21.066;2023-02-12T09:09:08;7.30;84.40
23475;DHT22;11910;52.086;21.066;2023-02-12T09:11:34;7.60;83.20
23475;DHT22;11910;52.086;21.066;2023-02-12T09:14:02;7.50;83.00
23475;DHT22;11910;52.086;21.066;2023-02-12T09:16:29;7.70;83.00
23475;DHT22;11910;52.086;21.066;2023-02-12T09:18:55;7.50;82.40
23475;DHT22;11910;52.086;21.066;2023-02-12T09:21:22;7.40;81.50
23475;DHT22;11910;52.086;21.066;2023-02-12T09:23:48;7.30;81.70
23475;DHT22;11910;52.086;21.066;2023-02-12T09:26:15;7.30;81.00
23475;DHT22;11910;52.086;21.066;2023-02-12T09:28:42;7.30;81.20
23475;DHT22;11910;52.086;21.066;2023-02-12T09:31:10;7.40;81.00
23475;DHT22;11910;52.086;21.066;2023-02-12T09:33:36;7.70;79.80
23475;DHT22;11910;52.086;21.066;2023-02-12T09:36:05;8.10;79.20
23475;DHT22;11910;52.086;21.066;2023-02-12T09:38:31;8.10;77.60
23475;DHT22;11910;52.086;21.066;2023-02-12T09:46:44;7.40;79.60
23475;DHT22;11910;52.086;21.066;2023-02-12T09:52:00;7.40;80.40
23475;DHT22;11910;52.086;21.066;2023-02-12T09:54:33;7.20;81.00
23475;DHT22;11910;52.086;21.066;2023-02-12T09:57:05;7.30;81.50
23475;DHT22;11910;52.086;21.066;2023-02-12T09:59:50;7.00;81.20
23475;DHT22;11910;52.086;21.066;2023-02-12T10:02:18;6.60;81.60
23475;DHT22;11910;52.086;21.066;2023-02-12T10:04:46;6.50;83.00
23475;DHT22;11910;52.086;21.066;2023-02-12T10:12:59;6.20;82.90
23475;DHT22;11910;52.086;21.066;2023-02-12T10:15:51;6.10;82.50
23475;DHT22;11910;52.086;21.066;2023-02-12T10:21:20;5.60;84.40
23475;DHT22;11910;52.086;21.066;2023-02-12T10:26:41;5.40;85.20
23475;DHT22;11910;52.086;21.066;2023-02-12T10:29:21;5.20;85.40
23475;DHT22;11910;52.086;21.066;2023-02-12T10:31:51;5.30;85.00
23475;DHT22;11910;52.086;21.066;2023-02-12T10:34:21;5.40;84.20
23475;DHT22;11910;52.086;21.066;2023-02-12T10:36:50;5.50;83.70
23475;DHT22;11910;52.086;21.066;2023-02-12T10:39:35;5.60;83.20
23475;DHT22;11910;52.086;21.066;2023-02-12T10:44:58;6.00;84.30
23475;DHT22;11910;52.086;21.066;2023-02-12T10:47:24;6.20;83.10
23475;DHT22;11910;52.086;21.066;2023-02-12T10:49:59;6.50;81.20
23475;DHT22;11910;52.086;21.066;2023-02-12T10:52:44;6.70;80.70
23475;DHT22;11910;52.086;21.066;2023-02-12T10:55:31;7.00;81.00
23475;DHT22;11910;52.086;21.066;2023-02-12T10:57:59;7.40;79.20
23475;DHT22;11910;52.086;21.066;2023-02-12T11:00:36;7.60;77.00
23475;DHT22;11910;52.086;21.066;2023-02-12T11:05:38;8.90;75.70
23475;DHT22;11910;52.086;21.066;2023-02-12T11:08:05;10.00;72.00
23475;DHT22;11910;52.086;21.066;2023-02-12T11:10:37;10.60;70.50
23475;DHT22;11910;52.086;21.066;2023-02-12T11:13:03;10.60;68.90
23475;DHT22;11910;52.086;21.066;2023-02-12T11:15:45;10.60;67.70
23475;DHT22;11910;52.086;21.066;2023-02-12T11:18:23;11.00;69.20
23475;DHT22;11910;52.086;21.066;2023-02-12T11:20:55;11.70;65.70
23475;DHT22;11910;52.086;21.066;2023-02-12T11:26:23;13.00;63.50
23475;DHT22;11910;52.086;21.066;2023-02-12T11:29:16;13.40;59.50
23475;DHT22;11910;52.086;21.066;2023-02-12T11:32:05;14.00;58.00
23475;DHT22;11910;52.086;21.066;2023-02-12T11:34:34;14.80;56.90
23475;DHT22;11910;52.086;21.066;2023-02-12T11:37:00;15.30;55.90
23475;DHT22;11910;52.086;21.066;2023-02-12T11:39:33;15.20;54.00
23475;DHT22;11910;52.086;21.066;2023-02-12T11:42:13;15.70;53.80
23475;DHT22;11910;52.086;21.066;2023-02-12T11:44:42;16.00;52.60
23475;DHT22;11910;52.086;21.066;2023-02-12T11:47:10;15.40;52.00
23475;DHT22;11910;52.086;21.066;2023-02-12T11:52:55;15.00;52.50
23475;DHT22;11910;52.086;21.066;2023-02-12T11:55:25;16.00;51.70
23475;DHT22;11910;52.086;21.066;2023-02-12T11:58:00;16.40;50.60
23475;DHT22;11910;52.086;21.066;2023-02-12T12:00:36;15.50;51.10
23475;DHT22;11910;52.086;21.066;2023-02-12T12:03:23;14.80;51.00
23475;DHT22;11910;52.086;21.066;2023-02-12T12:05:53;15.00;51.80
23475;DHT22;11910;52.086;21.066;2023-02-12T12:11:37;15.10;51.00
23475;DHT22;11910;52.086;21.066;2023-02-12T12:20:09;15.00;51.40
23475;DHT22;11910;52.086;21.066;2023-02-12T12:22:58;14.70;50.90
23475;DHT22;11910;52.086;21.066;2023-02-12T12:30:58;15.20;50.00
23475;DHT22;11910;52.086;21.066;2023-02-12T12:38:46;13.90;52.10
23475;DHT22;11910;52.086;21.066;2023-02-12T12:41:22;13.50;52.60
23475;DHT22;11910;52.086;21.066;2023-02-12T12:52:11;12.40;53.70
23475;DHT22;11910;52.086;21.066;2023-02-12T12:54:46;12.00;55.10
23475;DHT22;11910;52.086;21.066;2023-02-12T12:57:36;11.70;55.70
23475;DHT22;11910;52.086;21.066;2023-02-12T13:00:12;11.80;56.40
23475;DHT22;11910;52.086;21.066;2023-02-12T13:06:05;12.40;55.50
23475;DHT22;11910;52.086;21.066;2023-02-12T13:08:40;12.40;55.40
23475;DHT22;11910;52.086;21.066;2023-02-12T13:13:50;12.60;54.60
23475;DHT22;11910;52.086;21.066;2023-02-12T13:16:28;12.90;55.20
23475;DHT22;11910;52.086;21.066;2023-02-12T13:24:42;14.10;52.50
23475;DHT22;11910;52.086;21.066;2023-02-12T13:27:18;13.90;52.80
23475;DHT22;11910;52.086;21.066;2023-02-12T13:29:51;14.00;52.90
23475;DHT22;11910;52.086;21.066;2023-02-12T13:32:44;13.60;53.60
23475;DHT22;11910;52.086;21.066;2023-02-12T13:35:18;13.20;53.50
23475;DHT22;11910;52.086;21.066;2023-02-12T13:37:53;12.50;55.40
23475;DHT22;11910;52.086;21.066;2023-02-12T13:40:22;12.20;56.10
23475;DHT22;11910;52.086;21.066;2023-02-12T13:53:49;9.60;61.10
23475;DHT22;11910;52.086;21.066;2023-02-12T13:56:48;9.20;62.20
23475;DHT22;11910;52.086;21.066;2023-02-12T13:59:44;8.70;63.90
23475;DHT22;11910;52.086;21.066;2023-02-12T14:02:41;8.50;65.40
23475;DHT22;11910;52.086;21.066;2023-02-12T14:05:16;8.40;66.40
23475;DHT22;11910;52.086;21.066;2023-02-12T14:07:48;8.30;66.50
23475;DHT22;11910;52.086;21.066;2023-02-12T14:10:34;8.20;67.10
23475;DHT22;11910;52.086;21.066;2023-02-12T14:13:22;7.90;68.40
23475;DHT22;11910;52.086;21.066;2023-02-12T14:15:54;7.80;68.90
23475;DHT22;11910;52.086;21.066;2023-02-12T14:20:46;7.50;70.30
23475;DHT22;11910;52.086;21.066;2023-02-12T14:23:26;7.30;70.60
23475;DHT22;11910;52.086;21.066;2023-02-12T14:26:16;7.20;71.50
23475;DHT22;11910;52.086;21.066;2023-02-12T14:28:54;7.00;71.60
23475;DHT22;11910;52.086;21.066;2023-02-12T14:36:41;6.70;73.10
23475;DHT22;11910;52.086;21.066;2023-02-12T14:44:36;6.50;74.40
23475;DHT22;11910;52.086;21.066;2023-02-12T14:49:51;6.40;75.10
23475;DHT22;11910;52.086;21.066;2023-02-12T14:52:26;6.20;75.90
23475;DHT22;11910;52.086;21.066;2023-02-12T14:55:05;6.00;76.70
23475;DHT22;11910;52.086;21.066;2023-02-12T14:57:38;5.80;77.30
23475;DHT22;11910;52.086;21.066;2023-02-12T15:05:25;5.40;79.30
23475;DHT22;11910;52.086;21.066;2023-02-12T15:11:07;5.20;81.00
23475;DHT22;11910;52.086;21.066;2023-02-12T15:14:00;5.10;81.70
23475;DHT22;11910;52.086;21.066;2023-02-12T15:17:01;5.00;82.30
23475;DHT22;11910;52.086;21.066;2023-02-12T15:22:35;4.80;83.80
23475;DHT22;11910;52.086;21.066;2023-02-12T15:25:24;4.70;83.30
23475;DHT22;11910;52.086;21.066;2023-02-12T15:28:38;4.60;83.80
23475;DHT22;11910;52.086;21.066;2023-02-12T15:30:41;4.50;83.90
23475;DHT22;11910;52.086;21.066;2023-02-12T15:33:08;4.40;84.50
23475;DHT22;11910;52.086;21.066;2023-02-12T15:35:37;4.30;85.20
23475;DHT22;11910;52.086;21.066;2023-02-12T15:38:04;4.30;85.50
23475;DHT22;11910;52.086;21.066;2023-02-12T15:40:32;4.20;85.80
23475;DHT22;11910;52.086;21.066;2023-02-12T15:43:06;4.10;86.40
23475;DHT22;11910;52.086;21.066;2023-02-12T15:45:35;4.00;87.10
23475;DHT22;11910;52.086;21.066;2023-02-12T15:48:11;4.00;87.30
23475;DHT22;11910;52.086;21.066;2023-02-12T15:50:53;3.90;87.50
23475;DHT22;11910;52.086;21.066;2023-02-12T15:53:22;3.80;88.00
23475;DHT22;11910;52.086;21.066;2023-02-12T15:55:50;3.70;88.00
23475;DHT22;11910;52.086;21.066;2023-02-12T15:58:24;3.60;88.20
23475;DHT22;11910;52.086;21.066;2023-02-12T16:00:51;3.50;88.60
23475;DHT22;11910;52.086;21.066;2023-02-12T16:03:26;3.40;88.70
23475;DHT22;11910;52.086;21.066;2023-02-12T16:05:56;3.30;89.30
23475;DHT22;11910;52.086;21.066;2023-02-12T16:08:24;3.20;89.80
23475;DHT22;11910;52.086;21.066;2023-02-12T16:10:52;3.00;90.00
23475;DHT22;11910;52.086;21.066;2023-02-12T16:13:30;3.00;90.20
23475;DHT22;11910;52.086;21.066;2023-02-12T16:18:30;2.80;90.60
23475;DHT22;11910;52.086;21.066;2023-02-12T16:21:15;2.70;90.60
23475;DHT22;11910;52.086;21.066;2023-02-12T16:23:48;2.70;91.00
23475;DHT22;11910;52.086;21.066;2023-02-12T16:26:17;2.60;91.10
23475;DHT22;11910;52.086;21.066;2023-02-12T16:28:46;2.50;91.10
23475;DHT22;11910;52.086;21.066;2023-02-12T16:31:14;2.40;91.30
23475;DHT22;11910;52.086;21.066;2023-02-12T16:38:42;2.30;91.80
23475;DHT22;11910;52.086;21.066;2023-02-12T16:43:44;2.10;92.00
23475;DHT22;11910;52.086;21.066;2023-02-12T16:46:11;2.10;92.30
23475;DHT22;11910;52.086;21.066;2023-02-12T16:48:40;2.00;92.40
23475;DHT22;11910;52.086;21.066;2023-02-12T16:51:06;1.90;92.60
23475;DHT22;11910;52.086;21.066;2023-02-12T16:53:44;1.90;92.70
23475;DHT22;11910;52.086;21.066;2023-02-12T16:56:14;1.80;92.80
23475;DHT22;11910;52.086;21.066;2023-02-12T16:58:41;1.80;92.90
23475;DHT22;11910;52.086;21.066;2023-02-12T17:01:07;1.70;93.20
23475;DHT22;11910;52.086;21.066;2023-02-12T17:03:33;1.70;93.30
23475;DHT22;11910;52.086;21.066;2023-02-12T17:05:59;1.60;93.70
23475;DHT22;11910;52.086;21.066;2023-02-12T17:08:25;1.60;93.70
23475;DHT22;11910;52.086;21.066;2023-02-12T17:10:50;1.50;93.70
23475;DHT22;11910;52.086;21.066;2023-02-12T17:13:17;1.50;93.80
23475;DHT22;11910;52.086;21.066;2023-02-12T17:15:53;1.40;94.00
23475;DHT22;11910;52.086;21.066;2023-02-12T17:18:19;1.40;94.00
23475;DHT22;11910;52.086;21.066;2023-02-12T17:20:56;1.40;94.10
23475;DHT22;11910;52.086;21.066;2023-02-12T17:23:22;1.40;94.30
23475;DHT22;11910;52.086;21.066;2023-02-12T17:25:48;1.30;94.30
23475;DHT22;11910;52.086;21.066;2023-02-12T17:28:14;1.30;94.30
23475;DHT22;11910;52.086;21.066;2023-02-12T17:30:40;1.30;94.30
23475;DHT22;11910;52.086;21.066;2023-02-12T17:33:05;1.30;94.50
23475;DHT22;11910;52.086;21.066;2023-02-12T17:35:31;1.30;94.40
23475;DHT22;11910;52.086;21.066;2023-02-12T17:37:57;1.30;94.50
23475;DHT22;11910;52.086;21.066;2023-02-12T17:40:22;1.30;94.60
23475;DHT22;11910;52.086;21.066;2023-02-12T17:42:48;1.20;94.60
23475;DHT22;11910;52.086;21.066;2023-02-12T17:45:13;1.20;94.70
23475;DHT22;11910;52.086;21.066;2023-02-12T17:47:39;1.20;94.80
23475;DHT22;11910;52.086;21.066;2023-02-12T17:50:11;1.20;94.80
23475;DHT22;11910;52.086;21.066;2023-02-12T17:52:37;1.10;94.80
23475;DHT22;11910;52.086;21.066;2023-02-12T17:55:03;1.10;94.90
23475;DHT22;11910;52.086;21.066;2023-02-12T17:57:29;1.10;94.90
23475;DHT22;11910;52.086;21.066;2023-02-12T17:59:55;1.10;94.90
23475;DHT22;11910;52.086;21.066;2023-02-12T18:02:20;1.10;95.20
23475;DHT22;11910;52.086;21.066;2023-02-12T18:04:46;1.10;94.90
23475;DHT22;11910;52.086;21.066;2023-02-12T18:07:12;1.10;94.80
23475;DHT22;11910;52.086;21.066;2023-02-12T18:09:37;1.10;95.00
23475;DHT22;11910;52.086;21.066;2023-02-12T18:12:04;1.00;95.10
23475;DHT22;11910;52.086;21.066;2023-02-12T18:14:30;1.00;95.20
23475;DHT22;11910;52.086;21.066;2023-02-12T18:16:55;0.90;95.30
23475;DHT22;11910;52.086;21.066;2023-02-12T18:19:21;0.90;95.40
23475;DHT22;11910;52.086;21.066;2023-02-12T18:21:49;0.80;95.60
23475;DHT22;11910;52.086;21.066;2023-02-12T18:24:14;0.80;95.80
23475;DHT22;11910;52.086;21.066;2023-02-12T18:26:40;0.80;96.00
23475;DHT22;11910;52.086;21.066;2023-02-12T18:29:05;0.80;96.20
23475;DHT22;11910;52.086;21.066;2023-02-12T18:31:31;0.80;96.40